Otis, Indiana
Current Conditions -  °F | °C
As of 5:56 PM on Tuesday 25 Nov 2014 (Local Time) from KVPZ Reporting Station
Overcast Overcast  
Wind Chill: 24°   Ceiling: 1700
Heat Index: 24°   Visibility: 10mi
Dew Point: 17°   Wind: 3mph
Humidity: 75%   Direction: 240°WSW
Pressure: 30.18"   Gusts: NA
Location:  41.5386°N, 86.9094°W
Report Text: KVPZ 252356Z AUTO 24003KT 10SM OVC017 M04/M08 A3018 RMK AO2 SLP230 T10441083 11028 21044 53013 TSNO
Loading
Personal Weather Stations






























Interactive Weather Map New forecast layout! Learn more

10-Day Weather Forecast

Advertisements
Track Severe Weather on mobile